createdAt,value
2023-02-28T00:01:30.836Z,101810.72
2023-02-28T00:03:58.614Z,101820.31
2023-02-28T00:06:26.146Z,101829.09
2023-02-28T00:08:53.225Z,101833.59
2023-02-28T00:11:20.165Z,101838.84
2023-02-28T00:13:48.969Z,101818.72
2023-02-28T00:16:19.558Z,101831.78
2023-02-28T00:18:48.457Z,101824.78
2023-02-28T00:21:16.785Z,101832.72
2023-02-28T00:23:44.618Z,101831.81
2023-02-28T00:26:11.751Z,101827.44
2023-02-28T00:28:39.662Z,101822.16
2023-02-28T00:31:06.738Z,101828.41
2023-02-28T00:33:33.802Z,101779.59
2023-02-28T00:36:06.194Z,101819.56
2023-02-28T00:38:33.249Z,101824.00
2023-02-28T00:41:05.530Z,101825.81
2023-02-28T00:43:34.592Z,101793.53
2023-02-28T00:46:02.176Z,101835.56
2023-02-28T00:48:30.808Z,101845.28
2023-02-28T00:50:57.828Z,101844.41
2023-02-28T00:53:25.865Z,101847.97
2023-02-28T00:55:52.763Z,101840.19
2023-02-28T00:58:20.109Z,101853.28
2023-02-28T01:00:50.519Z,101852.47
2023-02-28T01:03:19.284Z,101863.88
2023-02-28T01:05:47.627Z,101811.56
2023-02-28T01:08:15.350Z,101870.09
2023-02-28T01:10:43.160Z,101804.66
2023-02-28T01:13:10.356Z,101857.00
2023-02-28T01:15:39.228Z,101822.25
2023-02-28T01:18:06.291Z,101855.34
2023-02-28T01:20:33.303Z,101866.78
2023-02-28T01:23:00.138Z,101876.53
2023-02-28T01:25:27.958Z,101866.09
2023-02-28T01:27:55.052Z,101855.53
2023-02-28T01:30:22.133Z,101881.00
2023-02-28T01:32:49.092Z,101883.69
2023-02-28T01:35:16.164Z,101871.38
2023-02-28T01:37:42.982Z,101864.56
2023-02-28T01:40:10.737Z,101867.94
2023-02-28T01:42:37.830Z,101880.28
2023-02-28T01:45:19.497Z,101896.16
2023-02-28T01:47:51.353Z,101889.09
2023-02-28T01:50:25.897Z,101904.09
2023-02-28T01:52:57.122Z,101908.50
2023-02-28T01:55:29.619Z,101910.28
2023-02-28T01:58:03.234Z,101915.56
2023-02-28T02:00:32.590Z,101924.41
2023-02-28T02:03:11.928Z,101916.50
2023-02-28T02:05:40.583Z,101930.59
2023-02-28T02:08:13.923Z,101920.06
2023-02-28T02:10:44.891Z,101912.13
2023-02-28T02:13:35.328Z,101917.38
2023-02-28T02:16:11.762Z,101919.16
2023-02-28T02:18:52.062Z,101918.25
2023-02-28T02:21:42.632Z,101930.59
2023-02-28T02:24:34.413Z,101942.91
2023-02-28T02:27:19.751Z,101932.34
2023-02-28T02:30:13.857Z,101932.34
2023-02-28T02:32:43.578Z,101933.25
2023-02-28T02:35:41.479Z,101935.88
2023-02-28T02:38:15.591Z,101938.50
2023-02-28T02:41:09.599Z,101935.00
2023-02-28T02:44:11.568Z,101935.88
2023-02-28T02:46:43.884Z,101918.25
2023-02-28T02:49:16.286Z,101918.25
2023-02-28T02:51:44.403Z,101917.56
2023-02-28T02:54:29.777Z,101935.06
2023-02-28T02:57:01.572Z,101935.03
2023-02-28T02:59:30.187Z,101925.50
2023-02-28T03:02:02.520Z,101943.06
2023-02-28T03:04:35.258Z,101951.81
2023-02-28T03:07:02.237Z,101952.66
2023-02-28T03:09:29.163Z,101957.94
2023-02-28T03:11:57.558Z,101950.19
2023-02-28T03:14:52.542Z,101981.75
2023-02-28T03:17:39.059Z,101980.00
2023-02-28T03:20:33.651Z,101972.09
2023-02-28T03:23:05.063Z,101978.28
2023-02-28T03:25:41.577Z,101964.19
2023-02-28T03:28:17.473Z,101958.91
2023-02-28T03:30:55.863Z,101955.41
2023-02-28T03:33:29.319Z,101958.97
2023-02-28T03:36:05.010Z,101954.63
2023-02-28T03:38:39.547Z,101953.72
2023-02-28T03:41:15.847Z,101944.09
2023-02-28T03:43:49.202Z,101954.63
2023-02-28T03:46:22.212Z,101944.19
2023-02-28T03:49:04.285Z,101969.63
2023-02-28T03:51:33.553Z,101976.66
2023-02-28T03:54:10.941Z,101976.72
2023-02-28T03:56:55.021Z,101989.94
2023-02-28T03:59:29.016Z,101966.16
2023-02-28T04:01:56.419Z,101984.66
2023-02-28T04:04:23.772Z,101946.28
2023-02-28T04:06:52.646Z,101973.22
2023-02-28T04:09:20.109Z,101981.19
2023-02-28T04:11:54.594Z,101992.66
2023-02-28T04:14:21.665Z,101972.69
2023-02-28T04:16:48.796Z,101989.19
2023-02-28T04:19:16.288Z,101981.31
2023-02-28T04:21:46.408Z,101980.47
2023-02-28T04:24:17.140Z,101962.88
2023-02-28T04:26:46.181Z,101960.25
2023-02-28T04:29:19.249Z,101958.53
2023-02-28T04:31:46.319Z,101953.31
2023-02-28T04:34:13.402Z,101958.59
2023-02-28T04:36:40.562Z,101954.25
2023-02-28T04:39:07.589Z,101955.16
2023-02-28T04:41:34.823Z,101976.28
2023-02-28T04:44:02.195Z,101969.25
2023-02-28T04:46:29.151Z,101956.94
2023-02-28T04:48:55.970Z,101964.00
2023-02-28T04:51:23.066Z,101969.34
2023-02-28T04:53:50.056Z,101981.66
2023-02-28T04:56:19.082Z,101963.34
2023-02-28T04:58:46.703Z,101987.09
2023-02-28T05:01:28.933Z,102006.38
2023-02-28T05:03:58.597Z,102005.53
2023-02-28T05:06:27.616Z,102011.72
2023-02-28T05:08:55.134Z,102014.47
2023-02-28T05:11:25.374Z,102031.13
2023-02-28T05:13:53.376Z,102038.19
2023-02-28T05:16:20.856Z,102046.97
2023-02-28T05:18:48.393Z,102057.56
2023-02-28T05:21:26.469Z,102047.09
2023-02-28T05:23:54.087Z,102039.16
2023-02-28T05:26:21.077Z,102047.06
2023-02-28T05:28:48.115Z,102041.84
2023-02-28T05:31:15.483Z,102050.59
2023-02-28T05:33:42.404Z,102055.00
2023-02-28T05:36:09.549Z,102053.31
2023-02-28T05:38:38.798Z,102065.59
2023-02-28T05:41:07.960Z,102042.00
2023-02-28T05:43:35.948Z,102078.81
2023-02-28T05:46:10.658Z,102077.06
2023-02-28T05:48:39.369Z,102077.09
2023-02-28T05:51:07.840Z,102081.47
2023-02-28T05:53:35.496Z,102083.22
2023-02-28T05:56:02.388Z,102078.91
2023-02-28T05:58:31.899Z,102083.25
2023-02-28T06:01:21.549Z,102067.50
2023-02-28T06:03:48.610Z,102074.53
2023-02-28T06:06:15.507Z,102101.75
2023-02-28T06:08:44.545Z,102114.13
2023-02-28T06:11:11.583Z,102115.91
2023-02-28T06:13:38.430Z,102122.91
2023-02-28T06:16:05.699Z,102133.47
2023-02-28T06:18:32.940Z,102135.25
2023-02-28T06:20:59.775Z,102093.16
2023-02-28T06:23:26.721Z,102122.06
2023-02-28T06:25:54.345Z,102134.41
2023-02-28T06:28:21.283Z,102137.03
2023-02-28T06:30:48.188Z,102138.78
2023-02-28T06:33:15.077Z,102123.97
2023-02-28T06:35:45.747Z,102147.63
2023-02-28T06:38:12.951Z,102158.19
2023-02-28T06:40:40.072Z,102152.91
2023-02-28T06:43:07.047Z,102103.81
2023-02-28T06:45:34.143Z,102145.00
2023-02-28T06:48:01.274Z,102148.50
2023-02-28T06:50:30.493Z,102167.84
2023-02-28T06:52:57.429Z,102179.28
2023-02-28T06:55:24.523Z,102182.78
2023-02-28T06:57:51.762Z,102174.00
2023-02-28T07:00:19.061Z,102179.28
2023-02-28T07:02:46.698Z,102186.28
2023-02-28T07:05:14.062Z,102194.22
2023-02-28T07:07:44.773Z,102206.50
2023-02-28T07:10:12.495Z,102190.72
2023-02-28T07:12:39.400Z,102159.22
2023-02-28T07:15:07.068Z,102199.50
2023-02-28T07:17:34.163Z,102199.56
2023-02-28T07:20:01.183Z,102206.53
2023-02-28T07:22:29.796Z,102211.81
2023-02-28T07:24:56.822Z,102216.22
2023-02-28T07:27:26.777Z,102211.81
2023-02-28T07:29:54.709Z,102225.00
2023-02-28T07:32:21.764Z,102189.91
2023-02-28T07:34:49.586Z,102217.09
2023-02-28T07:37:16.653Z,102215.34
2023-02-28T07:39:43.640Z,102223.25
2023-02-28T07:42:12.911Z,102203.94
2023-02-28T07:44:41.724Z,102223.25
2023-02-28T07:47:12.124Z,102225.88
2023-02-28T07:49:39.117Z,102222.34
2023-02-28T07:52:07.757Z,102226.75
2023-02-28T07:54:35.205Z,102236.38
2023-02-28T07:57:02.121Z,102224.97
2023-02-28T07:59:32.136Z,102232.00
2023-02-28T08:02:00.222Z,102224.09
2023-02-28T08:04:27.454Z,102213.56
2023-02-28T08:06:54.631Z,102230.22
2023-02-28T08:09:21.678Z,102232.00
2023-02-28T08:11:48.563Z,102237.28
2023-02-28T08:14:15.629Z,102229.34
2023-02-28T08:16:43.950Z,102234.63
2023-02-28T08:19:10.862Z,102238.13
2023-02-28T08:21:37.751Z,102234.63
2023-02-28T08:24:04.853Z,102239.00
2023-02-28T08:26:31.692Z,102227.59
2023-02-28T08:29:00.434Z,102234.63
2023-02-28T08:31:28.919Z,102231.97
2023-02-28T08:33:59.806Z,102231.06
2023-02-28T08:36:29.603Z,102240.75
2023-02-28T08:38:58.029Z,102172.38
2023-02-28T08:41:25.042Z,102241.59
2023-02-28T08:43:51.998Z,102217.06
2023-02-28T08:46:19.056Z,102242.50
2023-02-28T08:48:46.436Z,102250.38
2023-02-28T08:51:22.507Z,102245.09
2023-02-28T08:53:52.482Z,102260.00
2023-02-28T08:56:19.757Z,102248.59
2023-02-28T08:58:48.163Z,102251.25
2023-02-28T09:01:18.201Z,102267.88
2023-02-28T09:03:47.167Z,102266.13
2023-02-28T09:06:16.367Z,102257.31
2023-02-28T09:08:44.221Z,102242.44
2023-02-28T09:11:11.462Z,102256.44
2023-02-28T09:13:38.982Z,102246.78
2023-02-28T09:16:08.512Z,102259.06
2023-02-28T09:18:38.400Z,102254.66
2023-02-28T09:21:07.447Z,102252.00
2023-02-28T09:23:35.363Z,102249.38
2023-02-28T09:26:02.294Z,102256.44
2023-02-28T09:28:29.347Z,102252.91
2023-02-28T09:30:57.594Z,102250.31
2023-02-28T09:33:24.673Z,102250.25
2023-02-28T09:35:58.501Z,102258.16
2023-02-28T09:38:25.584Z,102255.50
2023-02-28T09:40:57.002Z,102248.47
2023-02-28T09:43:29.603Z,102247.56
2023-02-28T09:46:03.730Z,102228.31
2023-02-28T09:48:41.054Z,102210.84
2023-02-28T09:51:16.262Z,102257.22
2023-02-28T09:53:45.767Z,102258.09
2023-02-28T09:56:27.885Z,102247.53
2023-02-28T09:59:03.826Z,102251.94
2023-02-28T10:01:49.525Z,102246.66
2023-02-28T10:04:42.373Z,102265.09
2023-02-28T10:07:24.533Z,102252.78
2023-02-28T10:09:56.417Z,102243.09
2023-02-28T10:12:23.749Z,102225.63
2023-02-28T10:14:53.616Z,102267.72
2023-02-28T10:17:24.479Z,102276.47
2023-02-28T10:20:02.326Z,102275.59
2023-02-28T10:22:37.450Z,102279.97
2023-02-28T10:25:19.107Z,102259.81
2023-02-28T10:27:46.608Z,102286.94
2023-02-28T10:30:14.995Z,102270.22
2023-02-28T10:32:51.890Z,102274.56
2023-02-28T10:35:28.500Z,102271.91
2023-02-28T10:37:58.217Z,102285.09
2023-02-28T10:40:25.240Z,102267.47
2023-02-28T10:43:01.551Z,102263.94
2023-02-28T10:45:35.017Z,102263.91
2023-02-28T10:48:16.624Z,102258.63
2023-02-28T10:50:45.341Z,102270.97
2023-02-28T10:53:25.121Z,102277.97
2023-02-28T10:55:57.875Z,102236.75
2023-02-28T10:58:28.462Z,102261.22
2023-02-28T11:00:55.821Z,102266.50
2023-02-28T11:03:32.353Z,102265.59
2023-02-28T11:06:04.886Z,102266.44
2023-02-28T11:08:31.902Z,102283.19
2023-02-28T11:11:07.742Z,102274.38
2023-02-28T11:13:38.973Z,102256.00
2023-02-28T11:16:08.996Z,102284.88
2023-02-28T11:18:56.623Z,102268.16
2023-02-28T11:21:28.765Z,102269.91
2023-02-28T11:24:07.539Z,102271.63
2023-02-28T11:26:52.582Z,102256.75
2023-02-28T11:29:31.095Z,102271.63
2023-02-28T11:32:17.027Z,102277.78
2023-02-28T11:34:44.846Z,102283.94
2023-02-28T11:37:19.161Z,102273.38
2023-02-28T11:39:47.140Z,102274.25
2023-02-28T11:42:26.901Z,102283.03
2023-02-28T11:45:04.143Z,102282.19
2023-02-28T11:48:12.558Z,102283.06
2023-02-28T11:50:49.690Z,102282.16
2023-02-28T11:53:47.487Z,102276.03
2023-02-28T11:56:37.314Z,102263.69
2023-02-28T11:59:14.903Z,102258.41
2023-02-28T12:02:03.275Z,102256.63
2023-02-28T12:04:45.290Z,102261.91
2023-02-28T12:07:33.196Z,102249.56
2023-02-28T12:10:09.722Z,102260.13
2023-02-28T12:13:02.355Z,102258.38
2023-02-28T12:15:41.511Z,102255.72
2023-02-28T12:18:31.960Z,102256.56
2023-02-28T12:21:34.582Z,102265.38
2023-02-28T12:24:19.673Z,102267.09
2023-02-28T12:26:49.504Z,102258.31
2023-02-28T12:29:39.580Z,102218.78
2023-02-28T12:32:14.164Z,102241.53
2023-02-28T12:35:07.562Z,102245.03
2023-02-28T12:37:57.824Z,102221.25
2023-02-28T12:40:31.972Z,102212.59
2023-02-28T12:43:08.643Z,102230.03
2023-02-28T12:45:52.398Z,102239.72
2023-02-28T12:48:27.096Z,102242.38
2023-02-28T12:50:55.073Z,102224.75
2023-02-28T12:53:25.939Z,102238.88
2023-02-28T12:56:04.749Z,102237.97
2023-02-28T12:58:34.664Z,102223.94
2023-02-28T13:01:29.261Z,102224.78
2023-02-28T13:04:08.470Z,102233.59
2023-02-28T13:07:12.560Z,102227.41
2023-02-28T13:09:40.798Z,102220.41
2023-02-28T13:12:15.884Z,102232.69
2023-02-28T13:14:43.493Z,102231.84
2023-02-28T13:17:10.298Z,102228.34
2023-02-28T13:19:41.599Z,102227.41
2023-02-28T13:22:20.320Z,102221.25
2023-02-28T13:24:51.991Z,102217.69
2023-02-28T13:27:32.591Z,102226.53
2023-02-28T13:30:00.218Z,102215.97
2023-02-28T13:32:27.548Z,102212.47
2023-02-28T13:34:54.440Z,102208.97
2023-02-28T13:37:44.361Z,102218.66
2023-02-28T13:40:31.141Z,102219.53
2023-02-28T13:43:22.565Z,102165.31
2023-02-28T13:46:35.033Z,102215.16
2023-02-28T13:49:40.668Z,102215.19
2023-02-28T13:52:36.689Z,102222.19
2023-02-28T13:55:36.234Z,102218.72
2023-02-28T13:58:31.205Z,102220.47
2023-02-28T14:01:37.990Z,102217.81
2023-02-28T14:04:32.495Z,102223.13
2023-02-28T14:07:21.895Z,102226.66
2023-02-28T14:10:20.013Z,102223.13
2023-02-28T14:13:22.980Z,102226.69
2023-02-28T14:16:21.926Z,102223.16
2023-02-28T14:19:15.985Z,102223.16
2023-02-28T14:22:19.818Z,102232.84
2023-02-28T14:25:18.589Z,102234.59
2023-02-28T14:28:17.710Z,102232.84
2023-02-28T14:31:13.187Z,102240.75
2023-02-28T14:34:03.041Z,102233.75
2023-02-28T14:36:56.762Z,102203.97
2023-02-28T14:39:46.607Z,102230.22
2023-02-28T14:42:48.907Z,102244.31
2023-02-28T14:45:43.432Z,102238.16
2023-02-28T14:48:31.384Z,102251.34
2023-02-28T14:51:20.478Z,102241.69
2023-02-28T14:54:11.526Z,102244.34
2023-02-28T14:57:04.429Z,102243.44
2023-02-28T14:59:54.522Z,102251.38
2023-02-28T15:02:45.019Z,102255.78
2023-02-28T15:05:35.107Z,102254.03
2023-02-28T15:08:37.300Z,102235.56
2023-02-28T15:11:35.989Z,102240.88
2023-02-28T15:14:23.040Z,102238.31
2023-02-28T15:17:16.453Z,102248.81
2023-02-28T15:20:07.925Z,102247.06
2023-02-28T15:22:58.710Z,102247.06
2023-02-28T15:25:47.376Z,102198.00
2023-02-28T15:28:40.622Z,102249.69
2023-02-28T15:31:56.910Z,102200.75
2023-02-28T15:34:59.478Z,102264.69
2023-02-28T15:38:06.443Z,102267.31
2023-02-28T15:40:59.249Z,102274.38
2023-02-28T15:43:52.081Z,102283.19
2023-02-28T15:46:40.635Z,102290.25
2023-02-28T15:49:45.036Z,102290.28
2023-02-28T15:53:05.229Z,102283.25
2023-02-28T15:55:52.128Z,102284.13
2023-02-28T15:58:41.806Z,102270.94
2023-02-28T16:01:40.257Z,102280.63
2023-02-28T16:04:40.299Z,102277.13
2023-02-28T16:07:33.353Z,102257.88
2023-02-28T16:10:21.462Z,102300.03
2023-02-28T16:13:08.327Z,102313.25
2023-02-28T16:16:02.760Z,102298.31
2023-02-28T16:18:49.621Z,102306.22
2023-02-28T16:21:36.747Z,102311.53
2023-02-28T16:24:23.777Z,102323.81
2023-02-28T16:27:14.655Z,102329.09
2023-02-28T16:30:01.481Z,102332.66
2023-02-28T16:32:56.334Z,102343.22
2023-02-28T16:35:43.576Z,102331.78
2023-02-28T16:38:30.497Z,102321.25
2023-02-28T16:41:20.661Z,102322.13
2023-02-28T16:44:09.605Z,102323.91
2023-02-28T16:46:57.170Z,102330.97
2023-02-28T16:49:45.199Z,102335.38
2023-02-28T16:52:35.083Z,102336.28
2023-02-28T16:55:21.952Z,102333.66
2023-02-28T16:58:13.806Z,102327.50
2023-02-28T17:01:01.052Z,102337.16
2023-02-28T17:03:49.478Z,102330.16
2023-02-28T17:06:45.962Z,102342.47
2023-02-28T17:09:43.170Z,102344.25
2023-02-28T17:12:31.249Z,102339.84
2023-02-28T17:14:58.214Z,102342.47
2023-02-28T17:17:31.389Z,102289.03
2023-02-28T17:19:58.455Z,102344.28
2023-02-28T17:22:26.954Z,102336.38
2023-02-28T17:24:59.874Z,102346.03
2023-02-28T17:27:27.366Z,102347.78
2023-02-28T17:29:54.206Z,102343.41
2023-02-28T17:32:21.082Z,102326.78
2023-02-28T17:34:48.117Z,102334.66
2023-02-28T17:37:15.121Z,102335.56
2023-02-28T17:39:42.041Z,102337.31
2023-02-28T17:42:09.081Z,102345.25
2023-02-28T17:44:35.974Z,102338.22
2023-02-28T17:47:02.979Z,102342.63
2023-02-28T17:49:29.848Z,102340.88
2023-02-28T17:52:16.696Z,102335.66
2023-02-28T17:55:03.515Z,102345.31
2023-02-28T17:57:50.298Z,102347.94
2023-02-28T18:00:38.734Z,102352.34
2023-02-28T18:03:25.561Z,102337.44
2023-02-28T18:06:12.626Z,102341.81
2023-02-28T18:08:59.411Z,102333.91
2023-02-28T18:11:46.346Z,102340.09
2023-02-28T18:14:33.218Z,102326.91
2023-02-28T18:17:20.062Z,102340.97
2023-02-28T18:20:07.081Z,102340.97
2023-02-28T18:22:54.197Z,102335.72
2023-02-28T18:25:41.237Z,102326.97
2023-02-28T18:28:28.240Z,102323.44
2023-02-28T18:31:15.404Z,102302.41
2023-02-28T18:34:03.449Z,102324.38
2023-02-28T18:36:50.460Z,102320.84
2023-02-28T18:39:37.812Z,102312.06
2023-02-28T18:42:24.945Z,102313.84
2023-02-28T18:45:11.894Z,102328.75
2023-02-28T18:47:58.811Z,102333.16
2023-02-28T18:50:45.662Z,102326.16
2023-02-28T18:53:32.985Z,102315.66
2023-02-28T18:56:23.157Z,102336.72
2023-02-28T18:59:11.340Z,102329.69
2023-02-28T19:01:58.704Z,102330.56
2023-02-28T19:04:45.541Z,102331.47
2023-02-28T19:07:32.417Z,102335.00
2023-02-28T19:10:19.487Z,102344.66
2023-02-28T19:13:06.399Z,102334.13
2023-02-28T19:15:56.954Z,102335.88
2023-02-28T19:18:44.578Z,102335.00
2023-02-28T19:21:33.847Z,102333.25
2023-02-28T19:24:22.836Z,102334.16
2023-02-28T19:27:10.194Z,102338.53
2023-02-28T19:29:57.163Z,102343.81
2023-02-28T19:32:44.123Z,102331.53
2023-02-28T19:35:31.128Z,102332.41
2023-02-28T19:38:18.138Z,102335.94
2023-02-28T19:41:05.266Z,102341.19
2023-02-28T19:43:52.317Z,102344.69
2023-02-28T19:46:39.270Z,102342.94
2023-02-28T19:49:26.874Z,102350.84
2023-02-28T19:52:15.568Z,102354.38
2023-02-28T19:55:02.527Z,102353.50
2023-02-28T19:57:49.399Z,102369.31
2023-02-28T20:00:36.689Z,102365.78
2023-02-28T20:03:23.535Z,102358.78
2023-02-28T20:06:20.496Z,102349.13
2023-02-28T20:09:07.381Z,102305.25
2023-02-28T20:11:54.217Z,102358.78
2023-02-28T20:14:41.027Z,102364.94
2023-02-28T20:17:28.195Z,102357.03
2023-02-28T20:20:15.143Z,102338.59
2023-02-28T20:23:02.013Z,102350.88
2023-02-28T20:25:48.852Z,102341.25
2023-02-28T20:28:35.645Z,102347.38
2023-02-28T20:31:22.490Z,102337.75
2023-02-28T20:34:11.263Z,102335.09
2023-02-28T20:36:58.122Z,102301.75
2023-02-28T20:39:45.228Z,102350.03
2023-02-28T20:42:32.141Z,102356.19
2023-02-28T20:45:19.377Z,102347.38
2023-02-28T20:48:06.302Z,102356.19
2023-02-28T20:50:53.182Z,102368.44
2023-02-28T20:53:40.114Z,102360.56
2023-02-28T20:56:31.317Z,102359.66
2023-02-28T20:59:18.268Z,102367.56
2023-02-28T21:02:05.081Z,102363.19
2023-02-28T21:04:52.131Z,102367.56
2023-02-28T21:07:39.185Z,102358.81
2023-02-28T21:10:26.637Z,102365.81
2023-02-28T21:13:13.501Z,102364.06
2023-02-28T21:16:00.323Z,102360.56
2023-02-28T21:18:47.235Z,102366.72
2023-02-28T21:21:36.697Z,102364.94
2023-02-28T21:24:24.366Z,102360.56
2023-02-28T21:27:11.242Z,102362.28
2023-02-28T21:29:58.318Z,102347.41
2023-02-28T21:32:45.197Z,102348.25
2023-02-28T21:35:32.268Z,102354.41
2023-02-28T21:38:19.144Z,102341.25
2023-02-28T21:41:06.159Z,102334.22
2023-02-28T21:43:53.280Z,102342.13
2023-02-28T21:46:43.063Z,102312.28
2023-02-28T21:49:29.900Z,102326.34
2023-02-28T21:52:17.300Z,102317.56
2023-02-28T21:55:04.238Z,102321.94
2023-02-28T21:57:51.270Z,102317.56
2023-02-28T22:00:18.917Z,102326.34
2023-02-28T22:02:45.984Z,102324.56
2023-02-28T22:05:13.166Z,102310.53
2023-02-28T22:07:42.073Z,102325.44
2023-02-28T22:10:09.658Z,102318.44
2023-02-28T22:12:36.609Z,102315.81
2023-02-28T22:15:03.641Z,102316.66
2023-02-28T22:17:30.591Z,102296.50
2023-02-28T22:19:57.650Z,102264.94
2023-02-28T22:22:25.985Z,102306.13
2023-02-28T22:24:52.990Z,102300.88
2023-02-28T22:27:19.996Z,102296.50
2023-02-28T22:29:48.739Z,102292.09
2023-02-28T22:32:15.956Z,102298.22
2023-02-28T22:34:43.082Z,102299.97
2023-02-28T22:37:10.243Z,102291.22
2023-02-28T22:39:37.286Z,102288.59
2023-02-28T22:42:04.309Z,102271.03
2023-02-28T22:44:31.191Z,102272.81
2023-02-28T22:46:58.133Z,102266.66
2023-02-28T22:49:25.310Z,102268.41
2023-02-28T22:51:52.523Z,102271.94
2023-02-28T22:54:19.521Z,102257.03
2023-02-28T22:56:46.456Z,102267.56
2023-02-28T22:59:14.886Z,102264.91
2023-02-28T23:01:44.657Z,102266.66
2023-02-28T23:04:13.133Z,102271.03
2023-02-28T23:06:42.417Z,102268.41
2023-02-28T23:09:15.674Z,102264.03
2023-02-28T23:11:45.570Z,102260.50
2023-02-28T23:14:14.427Z,102259.63
2023-02-28T23:16:44.129Z,102259.63
2023-02-28T23:19:14.525Z,102257.00
2023-02-28T23:21:42.706Z,102246.47
2023-02-28T23:24:11.133Z,102253.50
2023-02-28T23:26:41.543Z,102253.50
2023-02-28T23:29:08.951Z,102252.63
2023-02-28T23:31:36.923Z,102244.72
2023-02-28T23:34:03.797Z,102232.47
2023-02-28T23:36:31.075Z,102249.09
2023-02-28T23:38:58.801Z,102246.47
2023-02-28T23:41:25.945Z,102245.63
2023-02-28T23:43:53.706Z,102246.47
2023-02-28T23:46:21.897Z,102240.34
2023-02-28T23:48:48.929Z,102249.97
2023-02-28T23:51:19.222Z,102235.09
2023-02-28T23:53:49.007Z,102178.97
2023-02-28T23:56:20.052Z,102226.31
2023-02-28T23:58:47.306Z,102226.31
